createdAt,value
2022-09-21T00:01:39.753Z,6.40
2022-09-21T00:04:09.686Z,7.28
2022-09-21T00:06:39.112Z,7.47
2022-09-21T00:09:09.489Z,6.72
2022-09-21T00:11:38.546Z,6.32
2022-09-21T00:14:10.712Z,6.57
2022-09-21T00:16:40.407Z,6.50
2022-09-21T00:19:10.585Z,5.80
2022-09-21T00:21:39.484Z,6.38
2022-09-21T00:24:08.703Z,6.75
2022-09-21T00:26:37.055Z,6.32
2022-09-21T00:29:05.839Z,6.15
2022-09-21T00:31:35.012Z,6.40
2022-09-21T00:34:03.904Z,7.18
2022-09-21T00:36:33.683Z,5.85
2022-09-21T00:39:03.434Z,7.57
2022-09-21T00:41:34.644Z,7.68
2022-09-21T00:44:25.279Z,7.32
2022-09-21T00:46:56.618Z,6.07
2022-09-21T00:49:26.714Z,7.03
2022-09-21T00:51:58.354Z,6.05
2022-09-21T00:54:31.223Z,5.95
2022-09-21T00:57:03.186Z,6.85
2022-09-21T00:59:33.773Z,6.78
2022-09-21T01:02:02.737Z,6.95
2022-09-21T01:04:31.864Z,6.22
2022-09-21T01:07:05.778Z,6.40
2022-09-21T01:09:34.887Z,7.00
2022-09-21T01:12:19.468Z,6.70
2022-09-21T01:14:59.012Z,6.95
2022-09-21T01:17:37.551Z,6.20
2022-09-21T01:20:37.057Z,6.68
2022-09-21T01:23:23.885Z,4.95
2022-09-21T01:26:05.721Z,6.50
2022-09-21T01:28:55.964Z,5.80
2022-09-21T01:31:29.604Z,6.53
2022-09-21T01:34:05.908Z,5.55
2022-09-21T01:36:36.202Z,5.78
2022-09-21T01:39:09.667Z,6.00
2022-09-21T01:41:41.751Z,6.03
2022-09-21T01:44:16.027Z,6.22
2022-09-21T01:46:47.175Z,6.28
2022-09-21T01:49:19.210Z,6.60
2022-09-21T01:51:51.576Z,7.25
2022-09-21T01:54:23.431Z,6.20
2022-09-21T01:56:56.882Z,6.65
2022-09-21T01:59:32.772Z,6.82
2022-09-21T02:02:06.202Z,5.90
2022-09-21T02:04:36.312Z,6.90
2022-09-21T02:07:06.034Z,7.03
2022-09-21T02:09:36.630Z,6.38
2022-09-21T02:12:05.874Z,7.50
2022-09-21T02:14:38.490Z,6.65
2022-09-21T02:17:16.605Z,6.90
2022-09-21T02:19:50.820Z,5.30
2022-09-21T02:22:29.511Z,6.60
2022-09-21T02:25:06.600Z,6.43
2022-09-21T02:27:42.246Z,6.25
2022-09-21T02:30:16.122Z,7.20
2022-09-21T02:32:51.717Z,8.13
2022-09-21T02:35:32.245Z,7.35
2022-09-21T02:38:08.383Z,7.75
2022-09-21T02:40:41.745Z,6.63
2022-09-21T02:43:16.296Z,7.70
2022-09-21T02:45:52.232Z,6.35
2022-09-21T02:48:25.850Z,7.07
2022-09-21T02:50:59.003Z,6.57
2022-09-21T02:53:31.414Z,6.47
2022-09-21T02:56:04.120Z,6.90
2022-09-21T02:58:33.915Z,6.10
2022-09-21T03:01:04.598Z,6.88
2022-09-21T03:03:33.208Z,7.22
2022-09-21T03:06:02.223Z,6.70
2022-09-21T03:08:31.193Z,6.55
2022-09-21T03:10:59.537Z,6.28
2022-09-21T03:13:28.092Z,6.97
2022-09-21T03:16:01.687Z,6.85
2022-09-21T03:18:32.196Z,7.80
2022-09-21T03:21:00.983Z,5.88
2022-09-21T03:23:29.553Z,7.35
2022-09-21T03:25:57.948Z,6.80
2022-09-21T03:28:26.655Z,7.38
2022-09-21T03:30:55.153Z,7.72
2022-09-21T03:33:25.256Z,7.28
2022-09-21T03:35:55.456Z,7.40
2022-09-21T03:38:27.072Z,8.13
2022-09-21T03:40:58.395Z,7.88
2022-09-21T03:43:27.209Z,7.78
2022-09-21T03:45:55.634Z,8.60
2022-09-21T03:48:24.119Z,8.95
2022-09-21T03:50:55.052Z,9.73
2022-09-21T03:53:23.452Z,10.05
2022-09-21T03:55:51.783Z,10.15
2022-09-21T03:58:20.193Z,9.85
2022-09-21T04:00:48.582Z,10.35
2022-09-21T04:03:16.995Z,10.15
2022-09-21T04:05:45.308Z,9.55
2022-09-21T04:08:15.115Z,9.35
2022-09-21T04:10:43.578Z,9.18
2022-09-21T04:13:13.666Z,9.65
2022-09-21T04:15:42.217Z,10.15
2022-09-21T04:18:10.613Z,10.50
2022-09-21T04:20:38.976Z,10.85
2022-09-21T04:23:09.468Z,12.07
2022-09-21T04:25:39.253Z,11.15
2022-09-21T04:28:07.919Z,11.93
2022-09-21T04:30:38.020Z,12.10
2022-09-21T04:33:06.601Z,11.95
2022-09-21T04:35:35.133Z,12.50
2022-09-21T04:38:03.502Z,11.05
2022-09-21T04:40:32.025Z,11.95
2022-09-21T04:43:02.065Z,11.18
2022-09-21T04:45:31.236Z,11.70
2022-09-21T04:47:59.653Z,11.13
2022-09-21T04:50:28.109Z,13.25
2022-09-21T04:53:05.972Z,11.55
2022-09-21T04:55:34.375Z,11.40
2022-09-21T04:58:04.156Z,11.32
2022-09-21T05:00:33.146Z,9.65
2022-09-21T05:03:01.473Z,9.93
2022-09-21T05:05:30.032Z,9.00
2022-09-21T05:07:58.401Z,9.43
2022-09-21T05:10:25.832Z,9.38
2022-09-21T05:12:54.496Z,9.52
2022-09-21T05:15:24.255Z,8.25
2022-09-21T05:17:52.747Z,9.10
2022-09-21T05:20:21.149Z,8.43
2022-09-21T05:22:49.565Z,8.85
2022-09-21T05:25:18.602Z,6.72
2022-09-21T05:27:46.961Z,8.30
2022-09-21T05:30:16.670Z,7.40
2022-09-21T05:32:51.748Z,8.10
2022-09-21T05:35:31.732Z,7.38
2022-09-21T05:38:05.763Z,7.65
2022-09-21T05:40:35.176Z,7.78
2022-09-21T05:43:04.324Z,6.93
2022-09-21T05:45:33.721Z,6.28
2022-09-21T05:48:13.543Z,6.50
2022-09-21T05:50:54.403Z,6.47
2022-09-21T05:53:43.167Z,6.75
2022-09-21T05:56:25.758Z,6.82
2022-09-21T05:59:02.455Z,7.05
2022-09-21T06:01:42.159Z,7.43
2022-09-21T06:04:13.788Z,6.82
2022-09-21T06:06:42.152Z,7.47
2022-09-21T06:09:10.594Z,7.30
2022-09-21T06:11:38.968Z,9.30
2022-09-21T06:14:07.553Z,7.45
2022-09-21T06:16:39.521Z,6.82
2022-09-21T06:19:08.094Z,7.03
2022-09-21T06:21:38.023Z,7.45
2022-09-21T06:24:06.738Z,7.20
2022-09-21T06:26:35.537Z,8.98
2022-09-21T06:29:03.927Z,6.68
2022-09-21T06:31:32.389Z,6.78
2022-09-21T06:34:01.256Z,7.80
2022-09-21T06:36:29.657Z,11.57
2022-09-21T06:38:59.488Z,10.02
2022-09-21T06:41:27.922Z,7.80
2022-09-21T06:43:57.376Z,7.60
2022-09-21T06:46:25.986Z,8.32
2022-09-21T06:48:54.511Z,6.97
2022-09-21T06:51:24.140Z,6.28
2022-09-21T06:53:56.933Z,7.63
2022-09-21T06:56:27.297Z,5.88
2022-09-21T06:58:56.639Z,7.70
2022-09-21T07:01:25.636Z,7.90
2022-09-21T07:03:54.659Z,7.15
2022-09-21T07:06:23.319Z,6.78
2022-09-21T07:11:43.865Z,6.30
2022-09-21T07:14:12.264Z,5.85
2022-09-21T07:16:41.222Z,5.18
2022-09-21T07:19:11.735Z,5.53
2022-09-21T07:21:40.805Z,8.80
2022-09-21T07:24:12.417Z,6.72
2022-09-21T07:26:41.286Z,7.30
2022-09-21T07:29:11.114Z,8.57
2022-09-21T07:31:39.792Z,8.05
2022-09-21T07:34:08.434Z,8.98
2022-09-21T07:36:36.857Z,7.50
2022-09-21T07:39:05.538Z,6.93
2022-09-21T07:41:33.911Z,7.03
2022-09-21T07:44:02.670Z,7.72
2022-09-21T07:46:32.728Z,7.13
2022-09-21T07:49:01.725Z,11.95
2022-09-21T07:51:30.129Z,8.32
2022-09-21T07:53:58.517Z,7.18
2022-09-21T07:56:27.469Z,7.00
2022-09-21T07:59:06.903Z,8.98
2022-09-21T08:01:38.303Z,8.65
2022-09-21T08:04:08.496Z,6.80
2022-09-21T08:06:40.322Z,7.05
2022-09-21T08:09:09.635Z,6.78
2022-09-21T08:11:39.347Z,6.78
2022-09-21T08:14:08.084Z,6.07
2022-09-21T08:16:39.601Z,7.00
2022-09-21T08:19:08.175Z,5.78
2022-09-21T08:21:36.593Z,5.03
2022-09-21T08:24:05.073Z,6.40
2022-09-21T08:26:33.688Z,4.97
2022-09-21T08:29:02.147Z,5.47
2022-09-21T08:31:31.164Z,4.93
2022-09-21T08:34:01.566Z,4.63
2022-09-21T08:36:30.346Z,4.95
2022-09-21T08:38:59.059Z,4.80
2022-09-21T08:41:46.495Z,4.18
2022-09-21T08:44:20.250Z,4.43
2022-09-21T08:46:56.119Z,4.40
2022-09-21T08:49:29.866Z,5.15
2022-09-21T08:52:02.918Z,4.25
2022-09-21T08:54:40.199Z,4.70
2022-09-21T08:57:13.291Z,4.82
2022-09-21T08:59:45.628Z,6.55
2022-09-21T09:02:38.155Z,4.53
2022-09-21T09:05:26.080Z,5.20
2022-09-21T09:08:19.000Z,4.28
2022-09-21T09:10:58.022Z,4.53
2022-09-21T09:13:51.637Z,4.32
2022-09-21T09:16:29.236Z,5.60
2022-09-21T09:19:02.910Z,5.05
2022-09-21T09:21:37.883Z,5.18
2022-09-21T09:24:12.514Z,6.75
2022-09-21T09:26:45.979Z,5.35
2022-09-21T09:29:24.272Z,5.35
2022-09-21T09:31:55.578Z,4.57
2022-09-21T09:34:30.234Z,5.90
2022-09-21T09:37:06.980Z,6.10
2022-09-21T09:39:35.485Z,5.35
2022-09-21T09:42:20.245Z,5.95
2022-09-21T09:45:04.054Z,7.35
2022-09-21T09:47:45.788Z,5.20
2022-09-21T09:50:21.883Z,4.70
2022-09-21T09:52:54.391Z,4.43
2022-09-21T09:55:30.349Z,5.78
2022-09-21T09:57:59.222Z,5.57
2022-09-21T10:00:27.766Z,3.60
2022-09-21T10:02:58.707Z,4.68
2022-09-21T10:05:34.730Z,4.22
2022-09-21T10:08:04.907Z,3.73
2022-09-21T10:10:36.457Z,3.90
2022-09-21T10:13:12.138Z,4.22
2022-09-21T10:15:45.418Z,4.40
2022-09-21T10:18:21.543Z,3.25
2022-09-21T10:20:58.372Z,3.90
2022-09-21T10:26:03.571Z,2.85
2022-09-21T10:28:32.598Z,3.60
2022-09-21T10:31:12.278Z,3.10
2022-09-21T10:33:50.074Z,3.50
2022-09-21T10:36:30.994Z,3.85
2022-09-21T10:39:18.928Z,4.07
2022-09-21T10:41:51.280Z,3.15
2022-09-21T10:44:21.829Z,3.03
2022-09-21T10:46:51.897Z,4.22
2022-09-21T10:49:24.286Z,3.83
2022-09-21T10:51:55.150Z,3.50
2022-09-21T10:54:28.573Z,4.18
2022-09-21T10:57:03.513Z,4.28
2022-09-21T10:59:33.878Z,3.72
2022-09-21T11:02:03.495Z,3.72
2022-09-21T11:04:40.608Z,3.67
2022-09-21T11:07:22.052Z,3.90
2022-09-21T11:09:59.889Z,3.50
2022-09-21T11:12:39.551Z,4.38
2022-09-21T11:15:18.432Z,3.67
2022-09-21T11:17:53.464Z,4.35
2022-09-21T11:20:31.745Z,4.28
2022-09-21T11:23:06.546Z,4.60
2022-09-21T11:25:42.529Z,4.20
2022-09-21T11:28:19.621Z,3.83
2022-09-21T11:31:05.952Z,3.50
2022-09-21T11:33:49.643Z,4.97
2022-09-21T11:36:26.952Z,4.00
2022-09-21T11:39:04.601Z,3.80
2022-09-21T11:41:57.232Z,3.90
2022-09-21T11:44:39.444Z,3.67
2022-09-21T11:47:19.166Z,4.88
2022-09-21T11:50:29.399Z,3.30
2022-09-21T11:53:07.078Z,4.80
2022-09-21T11:55:49.483Z,3.78
2022-09-21T11:58:28.745Z,4.38
2022-09-21T12:01:10.212Z,3.67
2022-09-21T12:03:50.880Z,3.45
2022-09-21T12:06:46.585Z,3.97
2022-09-21T12:09:35.876Z,3.58
2022-09-21T12:12:10.836Z,3.65
2022-09-21T12:15:01.359Z,3.20
2022-09-21T12:17:44.787Z,3.00
2022-09-21T12:20:23.261Z,3.10
2022-09-21T12:22:58.404Z,2.45
2022-09-21T12:25:37.938Z,3.13
2022-09-21T12:28:13.734Z,3.10
2022-09-21T12:30:51.327Z,3.28
2022-09-21T12:33:26.880Z,2.97
2022-09-21T12:36:00.460Z,3.08
2022-09-21T12:41:16.201Z,2.95
2022-09-21T12:43:48.390Z,3.13
2022-09-21T12:46:22.763Z,2.75
2022-09-21T12:48:53.087Z,2.65
2022-09-21T12:51:26.891Z,2.72
2022-09-21T12:54:00.161Z,2.20
2022-09-21T12:56:38.980Z,2.80
2022-09-21T12:59:31.944Z,2.95
2022-09-21T13:02:14.735Z,2.10
2022-09-21T13:04:53.521Z,2.50
2022-09-21T13:08:04.519Z,2.17
2022-09-21T13:10:40.890Z,2.50
2022-09-21T13:13:24.299Z,1.73
2022-09-21T13:15:53.714Z,1.75
2022-09-21T13:18:29.719Z,1.90
2022-09-21T13:21:02.221Z,1.92
2022-09-21T13:23:42.201Z,2.55
2022-09-21T13:26:13.030Z,3.00
2022-09-21T13:28:46.345Z,3.20
2022-09-21T13:31:43.528Z,2.97
2022-09-21T13:34:28.984Z,2.77
2022-09-21T13:37:28.581Z,3.00
2022-09-21T13:40:40.011Z,2.60
2022-09-21T13:43:46.554Z,3.92
2022-09-21T13:46:52.488Z,3.80
2022-09-21T13:49:31.348Z,3.67
2022-09-21T13:52:03.369Z,2.80
2022-09-21T13:54:35.650Z,3.22
2022-09-21T13:57:21.561Z,2.50
2022-09-21T14:00:06.315Z,3.45
2022-09-21T14:02:44.512Z,3.00
2022-09-21T14:05:26.998Z,2.70
2022-09-21T14:07:58.632Z,2.90
2022-09-21T14:10:29.577Z,2.85
2022-09-21T14:12:58.340Z,3.33
2022-09-21T14:15:39.238Z,3.55
2022-09-21T14:18:47.161Z,2.42
2022-09-21T14:21:18.748Z,2.40
2022-09-21T14:24:23.131Z,2.25
2022-09-21T14:27:03.428Z,3.35
2022-09-21T14:29:40.584Z,2.33
2022-09-21T14:34:45.077Z,1.98
2022-09-21T14:37:29.064Z,3.25
2022-09-21T14:39:59.553Z,2.25
2022-09-21T14:42:29.932Z,2.95
2022-09-21T14:45:04.020Z,3.13
2022-09-21T14:47:53.039Z,3.00
2022-09-21T14:53:29.889Z,3.07
2022-09-21T14:56:22.649Z,3.30
2022-09-21T14:59:07.660Z,3.78
2022-09-21T15:01:42.264Z,3.25
2022-09-21T15:04:33.566Z,4.28
2022-09-21T15:07:35.043Z,3.00
2022-09-21T15:10:40.429Z,3.03
2022-09-21T15:13:25.747Z,3.58
2022-09-21T15:16:09.451Z,3.08
2022-09-21T15:18:42.698Z,3.40
2022-09-21T15:21:22.647Z,3.65
2022-09-21T15:23:53.087Z,2.95
2022-09-21T15:26:26.811Z,2.80
2022-09-21T15:29:09.429Z,3.67
2022-09-21T15:31:40.619Z,3.15
2022-09-21T15:34:10.965Z,3.05
2022-09-21T15:36:41.813Z,3.80
2022-09-21T15:39:23.032Z,3.60
2022-09-21T15:42:18.091Z,3.75
2022-09-21T15:44:48.736Z,4.82
2022-09-21T15:47:20.152Z,3.78
2022-09-21T15:49:49.194Z,2.92
2022-09-21T15:52:24.828Z,3.00
2022-09-21T15:54:59.506Z,3.35
2022-09-21T15:57:38.996Z,3.03
2022-09-21T16:00:20.052Z,3.55
2022-09-21T16:03:05.437Z,3.47
2022-09-21T16:05:46.308Z,3.05
2022-09-21T16:08:36.514Z,2.72
2022-09-21T16:11:23.248Z,3.00
2022-09-21T16:14:21.500Z,3.08
2022-09-21T16:17:25.351Z,3.55
2022-09-21T16:20:19.958Z,4.53
2022-09-21T16:22:50.369Z,3.50
2022-09-21T16:25:30.131Z,3.53
2022-09-21T16:28:00.893Z,5.63
2022-09-21T17:06:22.872Z,4.30
2022-09-21T17:08:51.437Z,4.10
2022-09-21T17:11:21.087Z,4.78
2022-09-21T17:13:50.045Z,3.92
2022-09-21T17:16:20.256Z,2.00
2022-09-21T17:18:50.200Z,1.90
2022-09-21T17:21:20.129Z,1.67
2022-09-21T17:23:48.530Z,1.45
2022-09-21T17:26:21.221Z,1.65
2022-09-21T17:28:50.264Z,1.60
2022-09-21T18:59:15.983Z,2.28
2022-09-21T19:01:45.606Z,2.10
2022-09-21T19:04:17.153Z,2.20
2022-09-21T19:06:52.582Z,2.72
2022-09-21T19:09:33.250Z,2.88
2022-09-21T19:12:18.506Z,2.55
2022-09-21T19:14:59.207Z,2.80
2022-09-21T19:17:43.137Z,2.50
2022-09-21T19:20:30.896Z,2.30
2022-09-21T19:23:06.321Z,2.47
2022-09-21T19:25:48.684Z,2.30
2022-09-21T19:28:38.969Z,2.60
2022-09-21T19:31:12.984Z,2.65
2022-09-21T19:33:51.092Z,2.90
2022-09-21T19:36:20.663Z,2.55
2022-09-21T19:38:49.397Z,2.83
2022-09-21T19:41:35.242Z,2.60
2022-09-21T19:44:16.909Z,3.05
2022-09-21T19:46:54.757Z,2.80
2022-09-21T19:49:27.672Z,2.50
2022-09-21T19:51:58.207Z,3.30
2022-09-21T19:54:45.271Z,3.08
2022-09-21T19:57:34.008Z,3.20
2022-09-21T20:00:03.333Z,3.60
2022-09-21T20:02:45.679Z,3.95
2022-09-21T20:05:23.352Z,3.30
2022-09-21T20:07:55.960Z,3.28
2022-09-21T20:10:44.361Z,3.15
2022-09-21T20:13:39.828Z,3.40
2022-09-21T20:16:22.477Z,3.45
2022-09-21T20:18:59.104Z,3.75
2022-09-21T20:21:37.946Z,3.13
2022-09-21T20:24:19.653Z,4.13
2022-09-21T20:26:50.756Z,3.33
2022-09-21T20:29:20.318Z,4.13
2022-09-21T20:31:52.402Z,2.97
2022-09-21T20:34:22.275Z,2.78
2022-09-21T20:36:50.746Z,3.28
2022-09-21T20:39:19.169Z,3.05
2022-09-21T20:41:47.530Z,3.78
2022-09-21T20:44:16.141Z,3.88
2022-09-21T20:46:44.545Z,3.58
2022-09-21T20:49:15.418Z,4.45
2022-09-21T20:51:46.030Z,4.85
2022-09-21T20:54:14.332Z,4.50
2022-09-21T20:56:42.837Z,5.05
2022-09-21T20:59:11.193Z,4.32
2022-09-21T21:01:39.684Z,4.25
2022-09-21T21:04:08.338Z,4.47
2022-09-21T21:06:37.870Z,3.40
2022-09-21T21:09:07.733Z,4.15
2022-09-21T21:11:36.115Z,5.05
2022-09-21T21:14:05.016Z,3.67
2022-09-21T21:16:34.295Z,3.53
2022-09-21T21:19:02.740Z,3.95
2022-09-21T21:21:31.254Z,3.50
2022-09-21T21:24:16.954Z,3.80
2022-09-21T21:27:03.250Z,3.13
2022-09-21T21:29:32.358Z,2.92
2022-09-21T21:32:01.138Z,2.75
2022-09-21T21:34:29.629Z,3.20
2022-09-21T21:36:58.139Z,4.70
2022-09-21T21:39:26.503Z,4.07
2022-09-21T21:41:56.269Z,3.97
2022-09-21T21:44:24.737Z,3.75
2022-09-21T21:46:53.488Z,3.80
2022-09-21T21:49:22.593Z,2.60
2022-09-21T21:51:51.282Z,3.35
2022-09-21T21:54:22.371Z,3.38
2022-09-21T21:56:51.212Z,3.40
2022-09-21T21:59:21.706Z,2.85
2022-09-21T22:01:50.134Z,3.97
2022-09-21T22:04:18.528Z,3.30
2022-09-21T22:06:46.870Z,3.08
2022-09-21T22:09:16.532Z,3.33
2022-09-21T22:11:44.983Z,2.95
2022-09-21T22:14:13.395Z,2.67
2022-09-21T22:16:43.238Z,3.45
2022-09-21T22:19:11.767Z,2.90
2022-09-21T22:21:42.454Z,2.40
2022-09-21T22:24:11.525Z,3.15
2022-09-21T22:26:43.450Z,3.25
2022-09-21T22:29:13.503Z,2.63
2022-09-21T22:31:45.059Z,3.30
2022-09-21T22:34:14.886Z,4.05
2022-09-21T22:36:44.689Z,3.80
2022-09-21T22:39:14.062Z,4.00
2022-09-21T22:41:43.523Z,3.40
2022-09-21T22:44:12.593Z,3.65
2022-09-21T22:46:42.593Z,3.00
2022-09-21T22:49:10.983Z,2.90
2022-09-21T22:51:39.487Z,3.60
2022-09-21T22:54:08.036Z,3.28
2022-09-21T22:56:36.625Z,2.88
2022-09-21T22:59:06.534Z,3.70
2022-09-21T23:01:36.707Z,2.88
2022-09-21T23:04:08.814Z,3.97
2022-09-21T23:06:39.130Z,3.63
2022-09-21T23:09:09.348Z,3.13
2022-09-21T23:11:40.136Z,3.17
2022-09-21T23:14:08.632Z,3.10
2022-09-21T23:16:37.108Z,3.50
2022-09-21T23:19:07.231Z,3.70
2022-09-21T23:21:35.559Z,3.47
2022-09-21T23:24:05.458Z,3.33
2022-09-21T23:26:34.877Z,3.15
2022-09-21T23:29:08.339Z,3.03
2022-09-21T23:31:41.112Z,3.67
2022-09-21T23:34:13.779Z,3.55
2022-09-21T23:36:42.706Z,3.50
2022-09-21T23:39:12.741Z,3.55
2022-09-21T23:41:41.759Z,2.80
2022-09-21T23:44:10.384Z,2.88
2022-09-21T23:46:40.509Z,3.25
2022-09-21T23:49:09.138Z,3.30
2022-09-21T23:51:38.911Z,3.25
2022-09-21T23:54:07.571Z,5.72
2022-09-21T23:56:36.300Z,7.38
2022-09-21T23:59:05.683Z,8.30
